La Blanche Hermine — FLSV — position and weather

sailwx.info

Track history (hours):
 
Tides and Currents Weather Stations Pressure Air Temp Water Temp Dewpoint Dewpoint Depression Visibility Wind Speed Wind Dir Waves Ship Positions

La Blanche Hermine

Last reported at 2017-Sep-02 07:49 UTC. Time now 2017-Sep-25 09:53 UTC.
Position N 46°24' W 001°41'.
Warning: this ship's position is 23 days out of date.

Length 14 m.

Type: Sailing vessel. MMSI: 228080800.

Date/timePositionNaut miles runAvg speedWind from/ knotsBaromVisibWave heightAir tempDewpointWater temp
2017-Sep-02 07:49N 46°24' W 001°41'1 4.9
2017-Sep-02 07:30N 46°25' W 001°43'2 4.1
2017-Sep-02 07:01N 46°26' W 001°45'2 3.8
2017-Sep-02 06:31N 46°27' W 001°48'2 4.4
2017-Sep-02 05:57N 46°28' W 001°50'3 5.5
2017-Sep-02 05:29N 46°30' W 001°53'  
2017-Aug-30 16:21N 48°03' W 004°47'4 5.2
2017-Aug-30 15:40N 48°05' W 004°51'1 5.8
2017-Aug-30 15:27N 48°06' W 004°50'3 6.9
2017-Aug-30 14:59N 48°09' W 004°49'4 7.4
2017-Aug-30 14:30N 48°13' W 004°48'4 7.1
2017-Aug-30 13:58N 48°17' W 004°48'6 5.7
2017-Aug-30 12:53N 48°23' W 004°49'104 4.4
2017-Aug-29 12:58N 48°40' W 002°14'2 1.5
2017-Aug-29 11:34N 48°38' W 002°14'1 6.3
2017-Aug-29 11:22N 48°39' W 002°12'2 5.2
2017-Aug-29 11:00N 48°39' W 002°10'3 4.9
2017-Aug-29 10:25N 48°39' W 002°05'2 4.9
2017-Aug-29 09:59N 48°38' W 002°02'1 1.0
2017-Aug-29 08:55N 48°39' W 002°01'1 0.0
2017-Aug-27 18:18N 48°39' W 002°02'0 0.0
2017-Aug-27 17:12N 48°39' W 002°02'0 0.0
2017-Aug-27 16:03N 48°39' W 002°02'0 0.0
2017-Aug-27 15:48N 48°39' W 002°02'0 0.1
2017-Aug-27 15:15N 48°39' W 002°02'1 3.3
2017-Aug-27 14:48N 48°39' W 002°04'1 4.3
2017-Aug-27 14:28N 48°40' W 002°05'4 5.3
2017-Aug-27 13:44N 48°43' W 002°01'3 6.4
2017-Aug-27 13:17N 48°45' W 001°59'4 0.2
2017-Aug-26 10:21N 48°45' W 001°52'2 4.3
2017-Aug-26 10:00N 48°44' W 001°54'4 4.0
2017-Aug-26 09:06N 48°43' W 001°59'1 4.1
2017-Aug-26 08:58N 48°43' W 001°60'2 4.8
2017-Aug-26 08:30N 48°40' W 002°01'2 3.7
2017-Aug-26 07:58N 48°39' W 002°02'1 1.1
2017-Aug-26 07:30N 48°38' W 002°01'1 0.0
2017-Aug-24 16:04N 48°39' W 002°03'3 3.7
2017-Aug-24 15:18N 48°41' W 002°05'1 4.0
2017-Aug-24 15:00N 48°43' W 002°04'  
Track history (hours):
 
Tides and Currents Weather Stations Pressure Air Temp Water Temp Dewpoint Dewpoint Depression Visibility Wind Speed Wind Dir Waves Ship Positions

La Blanche Hermine

Last reported at 2017-Sep-02 07:49 UTC. Time now 2017-Sep-25 09:53 UTC.
Position N 46°24' W 001°41'.
Warning: this ship's position is 23 days out of date.

Length 14 m.

Type: Sailing vessel. MMSI: 228080800.

Date/timePositionNaut miles runAvg speedWind from/ knotsBaromVisibWave heightAir tempDewpointWater temp
2017-Sep-02 07:49N 46°24' W 001°41'1 4.9
2017-Sep-02 07:30N 46°25' W 001°43'2 4.1
2017-Sep-02 07:01N 46°26' W 001°45'2 3.8
2017-Sep-02 06:31N 46°27' W 001°48'2 4.4
2017-Sep-02 05:57N 46°28' W 001°50'3 5.5
2017-Sep-02 05:29N 46°30' W 001°53'  
2017-Aug-30 16:21N 48°03' W 004°47'4 5.2
2017-Aug-30 15:40N 48°05' W 004°51'1 5.8
2017-Aug-30 15:27N 48°06' W 004°50'3 6.9
2017-Aug-30 14:59N 48°09' W 004°49'4 7.4
2017-Aug-30 14:30N 48°13' W 004°48'4 7.1
2017-Aug-30 13:58N 48°17' W 004°48'6 5.7
2017-Aug-30 12:53N 48°23' W 004°49'104 4.4
2017-Aug-29 12:58N 48°40' W 002°14'2 1.5
2017-Aug-29 11:34N 48°38' W 002°14'1 6.3
2017-Aug-29 11:22N 48°39' W 002°12'2 5.2
2017-Aug-29 11:00N 48°39' W 002°10'3 4.9
2017-Aug-29 10:25N 48°39' W 002°05'2 4.9
2017-Aug-29 09:59N 48°38' W 002°02'1 1.0
2017-Aug-29 08:55N 48°39' W 002°01'1 0.0
2017-Aug-27 18:18N 48°39' W 002°02'0 0.0
2017-Aug-27 17:12N 48°39' W 002°02'0 0.0
2017-Aug-27 16:03N 48°39' W 002°02'0 0.0
2017-Aug-27 15:48N 48°39' W 002°02'0 0.1
2017-Aug-27 15:15N 48°39' W 002°02'1 3.3
2017-Aug-27 14:48N 48°39' W 002°04'1 4.3
2017-Aug-27 14:28N 48°40' W 002°05'4 5.3
2017-Aug-27 13:44N 48°43' W 002°01'3 6.4
2017-Aug-27 13:17N 48°45' W 001°59'4 0.2
2017-Aug-26 10:21N 48°45' W 001°52'2 4.3
2017-Aug-26 10:00N 48°44' W 001°54'4 4.0
2017-Aug-26 09:06N 48°43' W 001°59'1 4.1
2017-Aug-26 08:58N 48°43' W 001°60'2 4.8
2017-Aug-26 08:30N 48°40' W 002°01'2 3.7
2017-Aug-26 07:58N 48°39' W 002°02'1 1.1
2017-Aug-26 07:30N 48°38' W 002°01'1 0.0
2017-Aug-24 16:04N 48°39' W 002°03'3 3.7
2017-Aug-24 15:18N 48°41' W 002°05'1 4.0
2017-Aug-24 15:00N 48°43' W 002°04'  

Dump ship's entire track history